Time;durP1;ratioP1;P1;durP2;ratioP2;P2;SDS_P1;SDS_P2;PMS_P1;PMS_P2;Temp;Humidity;BMP_temperature;BMP_pressure;BME280_temperature;BME280_humidity;BME280_pressure;Samples;Min_cycle;Max_cycle;Signal;HPM_P1;HPM_P2
2022/02/11 00:08:51;;;;;;;10.48;2.13;;;;;;;9.11;100.00;102004.38;5021579;28;20042;-50
2022/02/11 00:11:19;;;;;;;5.97;2.57;;;;;;;8.58;100.00;102007.81;5021356;28;20033;-51
2022/02/11 00:13:44;;;;;;;19.10;3.25;;;;;;;9.09;100.00;102006.38;5025555;28;20116;-49
2022/02/11 00:16:10;;;;;;;7.82;3.13;;;;;;;9.21;100.00;101997.09;5031206;28;20120;-49
2022/02/11 00:18:35;;;;;;;10.10;2.13;;;;;;;9.20;100.00;101989.25;5015796;28;20065;-51
2022/02/11 00:21:03;;;;;;;12.30;2.33;;;;;;;9.08;100.00;101999.38;5024744;28;20034;-50
2022/02/11 00:23:30;;;;;;;9.95;2.30;;;;;;;9.26;100.00;102005.50;5022449;28;20431;-50
2022/02/11 00:26:01;;;;;;;13.63;2.50;;;;;;;9.13;100.00;102005.91;5017953;28;20049;-53
2022/02/11 00:33:43;;;;;;;11.85;2.38;;;;;;;8.93;100.00;101994.59;5028309;28;20040;-51
2022/02/11 00:36:11;;;;;;;8.57;1.92;;;;;;;8.74;100.00;101993.78;5018865;28;20041;-52
2022/02/11 01:02:25;;;;;;;7.00;2.17;;;;;;;8.72;100.00;101987.75;5018873;28;20045;-52
2022/02/11 01:04:51;;;;;;;13.55;2.08;;;;;;;9.14;100.00;101982.72;5020393;28;20029;-51
2022/02/11 01:07:16;;;;;;;14.43;1.83;;;;;;;9.36;100.00;101983.16;5025678;28;20049;-51
2022/02/11 01:09:42;;;;;;;15.63;2.27;;;;;;;9.47;100.00;101981.06;5027443;28;20049;-53
2022/02/11 01:12:09;;;;;;;11.70;2.22;;;;;;;9.59;100.00;101984.28;5034697;28;20482;-52
2022/02/11 01:14:39;;;;;;;11.48;2.10;;;;;;;9.67;100.00;101979.97;5018660;28;20040;-51
2022/02/11 01:20:12;;;;;;;9.25;2.42;;;;;;;9.58;100.00;101971.94;5021044;28;20045;-49
2022/02/11 01:30:38;;;;;;;16.67;2.47;;;;;;;9.18;100.00;101957.38;5012683;28;20079;-55
2022/02/11 01:33:33;;;;;;;10.35;2.40;;;;;;;9.19;100.00;101967.06;5020151;28;20042;-53
2022/02/11 01:42:09;;;;;;;20.05;4.00;;;;;;;9.32;100.00;101988.84;5020427;28;20045;-51
2022/02/11 02:00:29;;;;;;;10.32;2.13;;;;;;;9.44;100.00;101972.53;4984281;28;20046;-53
2022/02/11 02:11:15;;;;;;;22.85;5.18;;;;;;;9.58;100.00;101976.44;4997254;28;20034;-51
2022/02/11 02:26:43;;;;;;;21.88;3.38;;;;;;;9.84;100.00;102008.41;4996669;28;20080;-54
2022/02/11 02:30:02;;;;;;;39.45;4.20;;;;;;;9.85;100.00;102027.97;5005900;28;20042;-53
2022/02/11 02:35:15;;;;;;;16.88;3.30;;;;;;;9.64;100.00;102001.66;5009622;28;20042;-52
2022/02/11 02:57:03;;;;;;;15.15;4.18;;;;;;;9.36;100.00;101985.84;5017503;28;20034;-52
2022/02/11 03:16:38;;;;;;;27.13;3.75;;;;;;;9.16;100.00;101988.72;5018151;28;20031;-56
2022/02/11 03:49:00;;;;;;;18.58;3.33;;;;;;;9.62;100.00;102015.19;4966173;28;20043;-51
2022/02/11 04:55:53;;;;;;;19.20;2.80;;;;;;;9.62;100.00;102132.72;5034824;28;20037;-53
2022/02/11 05:01:04;;;;;;;18.15;2.95;;;;;;;9.51;100.00;102146.31;5020706;28;20120;-53
2022/02/11 05:03:29;;;;;;;17.30;2.60;;;;;;;9.50;100.00;102163.31;5025321;28;20117;-53
2022/02/11 05:05:54;;;;;;;19.13;3.57;;;;;;;9.39;100.00;102165.25;5027954;28;20056;-53
2022/02/11 05:08:27;;;;;;;17.97;3.70;;;;;;;9.39;100.00;102172.41;5017970;28;20153;-49
2022/02/11 05:10:54;;;;;;;24.83;3.38;;;;;;;9.63;100.00;102179.78;5029912;28;20044;-49
2022/02/11 05:13:20;;;;;;;33.53;4.38;;;;;;;9.42;100.00;102188.97;5022882;28;20427;-52
2022/02/11 05:15:46;;;;;;;28.70;4.43;;;;;;;9.65;100.00;102196.50;5022770;28;20043;-54
2022/02/11 05:18:12;;;;;;;19.87;3.70;;;;;;;9.38;100.00;102200.13;5029965;28;20037;-51
2022/02/11 05:20:38;;;;;;;24.35;3.90;;;;;;;9.57;100.00;102210.63;5017590;28;20275;-52
2022/02/11 05:23:07;;;;;;;27.88;3.00;;;;;;;9.40;100.00;102206.13;5028392;28;20038;-54
2022/02/11 05:25:33;;;;;;;23.58;3.85;;;;;;;9.69;100.00;102207.72;5024574;28;20033;-53
2022/02/11 05:27:59;;;;;;;29.42;3.78;;;;;;;9.82;100.00;102216.16;5020783;28;20172;-54
2022/02/11 05:30:24;;;;;;;25.00;4.10;;;;;;;9.79;100.00;102220.94;5012950;28;20124;-51
2022/02/11 05:32:50;;;;;;;15.53;3.03;;;;;;;9.73;100.00;102214.41;5000785;28;20290;-49
2022/02/11 05:35:15;;;;;;;19.97;3.13;;;;;;;9.75;100.00;102223.94;5009111;28;20072;-54
2022/02/11 05:37:41;;;;;;;21.73;3.90;;;;;;;9.87;100.00;102237.88;5025282;28;20052;-52
2022/02/11 05:40:06;;;;;;;20.23;3.92;;;;;;;10.03;100.00;102237.19;5019840;28;20033;-55
2022/02/11 05:42:32;;;;;;;25.92;5.15;;;;;;;9.98;100.00;102234.13;5030161;28;20038;-51
2022/02/11 05:44:57;;;;;;;15.93;2.77;;;;;;;9.75;100.00;102242.66;5019319;28;20084;-53
2022/02/11 05:47:23;;;;;;;14.70;2.50;;;;;;;10.06;100.00;102249.38;5026736;28;20479;-52
2022/02/11 05:49:48;;;;;;;20.67;3.47;;;;;;;9.61;100.00;102259.25;5028568;28;20033;-51
2022/02/11 05:52:14;;;;;;;20.80;3.87;;;;;;;9.85;100.00;102261.25;5018915;28;20064;-49
2022/02/11 05:54:40;;;;;;;15.18;2.60;;;;;;;9.55;100.00;102258.03;5030120;28;20033;-49
2022/02/11 05:57:05;;;;;;;18.47;2.90;;;;;;;9.63;100.00;102272.44;5020120;28;20045;-52
2022/02/11 05:59:31;;;;;;;15.03;2.50;;;;;;;9.69;100.00;102271.84;5024292;28;20271;-54
2022/02/11 06:01:56;;;;;;;15.57;2.73;;;;;;;9.70;100.00;102271.66;5026742;28;20037;-52
2022/02/11 06:04:24;;;;;;;15.63;2.33;;;;;;;9.76;100.00;102288.91;5016981;28;20072;-52
2022/02/11 06:06:51;;;;;;;18.65;5.18;;;;;;;9.67;100.00;102320.06;5029598;28;20030;-54
2022/02/11 06:09:18;;;;;;;11.57;1.85;;;;;;;9.23;100.00;102317.28;5020960;28;20087;-50
2022/02/11 06:11:44;;;;;;;10.02;1.95;;;;;;;9.24;100.00;102335.81;5022423;28;20483;-53
2022/02/11 06:14:10;;;;;;;10.57;1.35;;;;;;;9.33;100.00;102316.22;5028331;28;20069;-51
2022/02/11 06:16:35;;;;;;;12.53;2.47;;;;;;;9.25;100.00;102312.63;5016916;28;20072;-54
2022/02/11 06:19:00;;;;;;;10.93;1.83;;;;;;;9.16;100.00;102320.56;5028033;28;20061;-51
2022/02/11 06:21:26;;;;;;;11.43;1.80;;;;;;;9.29;100.00;102325.53;5021864;28;20113;-52
2022/02/11 06:23:55;;;;;;;11.63;1.73;;;;;;;9.38;100.00;102333.63;5020663;28;20091;-56
2022/02/11 06:26:23;;;;;;;16.05;2.92;;;;;;;8.89;100.00;102340.91;5029124;28;20048;-52
2022/02/11 06:28:49;;;;;;;15.32;3.03;;;;;;;9.07;100.00;102352.63;5016698;28;20033;-53
2022/02/11 06:31:14;;;;;;;17.50;2.30;;;;;;;8.70;100.00;102368.50;5026209;28;20026;-50
2022/02/11 06:33:40;;;;;;;36.03;3.57;;;;;;;9.01;100.00;102360.25;5023730;28;20076;-51
2022/02/11 06:36:05;;;;;;;14.17;2.00;;;;;;;9.08;100.00;102359.66;5018939;28;20092;-49
2022/02/11 06:38:30;;;;;;;24.43;2.73;;;;;;;8.75;100.00;102371.56;5011769;28;20045;-54
2022/02/11 06:40:56;;;;;;;10.03;2.33;;;;;;;8.99;100.00;102378.19;5017622;28;20029;-53
2022/02/11 06:43:21;;;;;;;11.10;2.20;;;;;;;9.26;100.00;102368.53;5024975;28;20049;-52
2022/02/11 06:45:47;;;;;;;13.23;2.33;;;;;;;8.88;100.00;102392.59;5024455;28;20279;-53
2022/02/11 06:48:16;;;;;;;21.87;2.93;;;;;;;9.01;100.00;102392.28;5017991;28;20112;-54
2022/02/11 06:50:42;;;;;;;18.67;2.75;;;;;;;8.81;100.00;102396.00;5029152;28;20057;-51
2022/02/11 06:53:09;;;;;;;;;;;;;;;9.00;100.00;102406.59;5019250;28;20079;-53
2022/02/11 06:55:35;;;;;;;16.90;3.75;;;;;;;8.94;100.00;102412.50;5023049;28;19995;-53
2022/02/11 06:58:01;;;;;;;14.45;2.65;;;;;;;8.96;100.00;102426.53;5025985;28;20116;-53
2022/02/11 07:00:26;;;;;;;17.73;2.80;;;;;;;8.86;100.00;102431.06;5020332;28;20475;-52
2022/02/11 07:02:52;;;;;;;16.40;3.83;;;;;;;8.95;100.00;102432.84;5017434;28;20478;-49
2022/02/11 07:05:19;;;;;;;18.20;3.35;;;;;;;8.69;100.00;102436.16;5025142;28;20286;-50
2022/02/11 07:07:47;;;;;;;20.50;3.17;;;;;;;8.89;100.00;102446.78;5023381;28;20045;-53
2022/02/11 07:10:12;;;;;;;20.75;2.97;;;;;;;9.01;100.00;102450.13;5017221;28;20083;-50
2022/02/11 07:12:38;;;;;;;19.43;3.27;;;;;;;9.07;100.00;102459.38;5028644;28;20025;-51
2022/02/11 07:15:04;;;;;;;18.93;2.60;;;;;;;9.05;100.00;102464.84;5017371;28;20037;-50
2022/02/11 07:17:30;;;;;;;14.88;2.67;;;;;;;8.61;100.00;102479.53;5023498;28;20117;-55
2022/02/11 07:19:55;;;;;;;19.70;2.83;;;;;;;8.94;100.00;102484.53;5024741;28;20044;-51
2022/02/11 07:22:20;;;;;;;18.60;2.93;;;;;;;9.14;100.00;102493.34;5016390;28;20045;-56
2022/02/11 07:24:48;;;;;;;17.13;3.30;;;;;;;8.92;100.00;102496.38;5028570;28;20041;-54
2022/02/11 07:27:14;;;;;;;21.33;2.75;;;;;;;8.85;100.00;102506.75;5018966;28;20037;-55
2022/02/11 07:29:40;;;;;;;22.25;4.20;;;;;;;8.92;100.00;102510.53;5021791;28;20070;-52
2022/02/11 07:32:06;;;;;;;21.63;2.77;;;;;;;9.10;100.00;102531.16;5031221;28;20044;-52
2022/02/11 07:34:31;;;;;;;13.60;1.83;;;;;;;9.23;100.00;102533.50;5030738;28;20109;-52
2022/02/11 07:36:57;;;;;;;11.87;1.73;;;;;;;8.70;100.00;102533.88;5026461;28;20508;-49
2022/02/11 07:39:23;;;;;;;10.47;1.50;;;;;;;9.26;100.00;102549.22;5019233;28;20094;-51
2022/02/11 07:41:49;;;;;;;;;;;;;;;9.30;100.00;102559.47;5025183;28;20040;-54
2022/02/11 07:44:14;;;;;;;12.57;1.90;;;;;;;9.59;100.00;102557.72;5027851;28;19913;-56
2022/02/11 07:46:39;;;;;;;14.53;2.60;;;;;;;9.08;100.00;102571.31;5025930;28;20124;-56
2022/02/11 07:49:05;;;;;;;9.93;2.03;;;;;;;9.27;100.00;102578.47;5027034;28;20072;-50
2022/02/11 07:51:31;;;;;;;14.23;3.53;;;;;;;9.11;100.00;102575.53;5024837;28;20034;-50
2022/02/11 07:53:58;;;;;;;16.45;2.13;;;;;;;9.36;100.00;102576.75;5018390;28;20041;-53
2022/02/11 07:56:24;;;;;;;15.98;3.70;;;;;;;9.06;100.00;102575.13;5027694;28;20061;-54
2022/02/11 07:58:51;;;;;;;17.73;3.05;;;;;;;9.37;100.00;102574.91;5015196;28;20065;-56
2022/02/11 08:01:19;;;;;;;12.55;2.25;;;;;;;9.45;100.00;102588.38;5025280;28;20033;-52
2022/02/11 08:03:50;;;;;;;15.63;2.17;;;;;;;9.51;100.00;102593.16;5024476;28;20033;-51
2022/02/11 08:06:15;;;;;;;10.90;2.25;;;;;;;9.38;100.00;102598.81;5017114;28;20045;-50
2022/02/11 08:08:40;;;;;;;8.37;2.30;;;;;;;9.63;100.00;102609.00;5028120;28;20060;-51
2022/02/11 08:11:06;;;;;;;22.73;2.33;;;;;;;8.95;100.00;102608.16;5017135;28;20047;-52
2022/02/11 08:13:33;;;;;;;15.07;3.27;;;;;;;9.61;100.00;102626.00;5022914;28;20057;-50
2022/02/11 08:15:59;;;;;;;19.77;2.58;;;;;;;9.59;100.00;102625.31;5024294;28;20045;-52
2022/02/11 08:18:24;;;;;;;18.48;3.33;;;;;;;10.21;100.00;102639.16;5015561;28;20426;-52
2022/02/11 08:20:50;;;;;;;12.53;2.97;;;;;;;9.98;100.00;102651.06;5027953;28;20073;-53
2022/02/11 08:23:16;;;;;;;20.92;3.53;;;;;;;10.07;100.00;102654.69;5017126;28;20042;-50
2022/02/11 08:25:41;;;;;;;22.95;3.13;;;;;;;9.80;100.00;102659.00;5025871;28;20034;-52
2022/02/11 08:28:07;;;;;;;27.03;3.53;;;;;;;9.62;100.00;102656.25;5021800;28;20038;-52
2022/02/11 08:30:32;;;;;;;18.67;4.22;;;;;;;9.32;100.00;102675.00;5014682;28;20041;-54
2022/02/11 08:32:58;;;;;;;16.97;2.60;;;;;;;9.75;100.00;102678.16;5027331;28;20037;-56
2022/02/11 08:35:23;;;;;;;30.97;4.97;;;;;;;10.22;100.00;102692.47;5019277;28;20033;-55
2022/02/11 08:37:48;;;;;;;16.83;2.20;;;;;;;10.14;100.00;102684.34;5020425;28;20084;-56
2022/02/11 08:40:14;;;;;;;18.97;2.60;;;;;;;10.09;100.00;102697.31;5025712;28;20041;-54
2022/02/11 08:42:39;;;;;;;15.47;2.63;;;;;;;10.45;100.00;102703.66;5029631;28;20195;-50
2022/02/11 08:45:07;;;;;;;16.17;2.33;;;;;;;10.22;100.00;102710.38;5016318;28;20044;-56
2022/02/11 08:47:32;;;;;;;21.05;2.83;;;;;;;9.88;100.00;102709.06;5024546;28;20108;-52
2022/02/11 08:50:00;;;;;;;18.65;2.42;;;;;;;10.58;100.00;102715.84;5027238;28;20162;-54
2022/02/11 08:52:27;;;;;;;16.85;3.13;;;;;;;11.00;100.00;102723.31;5019038;28;20041;-52
2022/02/11 08:54:53;;;;;;;18.55;3.03;;;;;;;11.16;100.00;102725.31;5031243;28;20033;-52
2022/02/11 08:57:19;;;;;;;15.38;2.90;;;;;;;11.95;100.00;102721.06;5021894;28;20048;-53
2022/02/11 08:59:44;;;;;;;13.50;2.80;;;;;;;11.57;100.00;102727.53;5024670;28;20034;-54
2022/02/11 09:02:11;;;;;;;13.93;2.70;;;;;;;12.14;100.00;102728.91;5028494;28;20041;-55
2022/02/11 09:04:39;;;;;;;17.80;3.15;;;;;;;13.16;100.00;102735.31;5018070;28;20125;-53
2022/02/11 09:07:05;;;;;;;20.42;3.38;;;;;;;13.33;97.71;102728.91;5029782;28;20406;-50
2022/02/11 09:09:30;;;;;;;15.70;3.55;;;;;;;13.28;92.76;102733.97;5023166;28;20037;-53
2022/02/11 09:11:56;;;;;;;20.93;2.43;;;;;;;14.07;93.94;102734.41;5025477;28;20029;-48
2022/02/11 09:14:21;;;;;;;21.00;3.07;;;;;;;14.19;89.90;102744.63;5030487;28;20148;-50
2022/02/11 09:16:46;;;;;;;14.27;3.10;;;;;;;13.83;91.87;102750.41;5023005;28;20029;-54
2022/02/11 09:19:12;;;;;;;18.93;2.60;;;;;;;14.49;77.94;102757.50;5023925;28;20033;-48
2022/02/11 09:21:38;;;;;;;27.27;3.30;;;;;;;14.59;82.92;102759.97;5032375;28;20037;-52
2022/02/11 09:24:04;;;;;;;16.83;2.95;;;;;;;15.52;71.27;102765.47;5028028;28;20037;-52
2022/02/11 09:26:29;;;;;;;17.52;2.67;;;;;;;15.03;77.54;102781.00;5005375;28;20039;-53
2022/02/11 09:28:54;;;;;;;13.13;2.60;;;;;;;15.39;73.38;102776.88;5029156;28;20034;-49
2022/02/11 09:31:26;;;;;;;24.83;3.70;;;;;;;14.64;72.41;102779.13;5030866;28;20122;-49
2022/02/11 09:33:53;;;;;;;20.67;2.63;;;;;;;15.54;75.07;102784.16;5010923;28;20041;-53
2022/02/11 09:36:19;;;;;;;20.50;4.40;;;;;;;16.11;68.18;102782.81;5028212;28;20274;-52
2022/02/11 09:38:44;;;;;;;15.13;3.60;;;;;;;16.88;64.61;102796.09;5030591;28;20045;-54
2022/02/11 09:41:12;;;;;;;15.85;3.72;;;;;;;16.30;63.43;102786.84;5030678;28;20038;-54
2022/02/11 09:43:38;;;;;;;17.57;2.73;;;;;;;16.26;67.48;102801.75;5023561;28;20406;-53
2022/02/11 09:46:06;;;;;;;19.25;3.25;;;;;;;15.03;71.93;102804.38;5026588;28;20274;-55
2022/02/11 09:48:32;;;;;;;19.50;3.83;;;;;;;15.99;67.03;102812.09;5031801;28;20040;-52
2022/02/11 09:50:57;;;;;;;28.03;3.83;;;;;;;15.23;79.75;102815.56;5023687;28;20370;-53
2022/02/11 09:53:28;;;;;;;13.40;2.60;;;;;;;14.65;73.00;102817.66;5023729;28;20021;-50
2022/02/11 09:55:54;;;;;;;16.00;3.03;;;;;;;14.42;85.47;102824.63;5031726;28;20128;-57
2022/02/11 09:58:20;;;;;;;20.67;3.95;;;;;;;15.59;78.26;102833.00;5023923;28;20309;-52
2022/02/11 10:00:48;;;;;;;20.25;3.42;;;;;;;16.41;67.34;102833.28;5023542;28;20053;-54
2022/02/11 10:03:22;;;;;;;21.53;3.10;;;;;;;16.94;61.93;102830.44;5029703;28;20043;-54
2022/02/11 10:05:54;;;;;;;15.33;2.70;;;;;;;17.12;56.97;102831.94;5031266;28;20286;-52
2022/02/11 10:08:19;;;;;;;11.13;2.80;;;;;;;18.24;52.39;102839.63;5032913;28;20274;-52
2022/02/11 10:10:48;;;;;;;12.27;2.60;;;;;;;18.78;49.11;102843.44;5023243;28;20329;-53
2022/02/11 10:13:19;;;;;;;17.33;2.73;;;;;;;19.52;48.15;102848.28;5024859;28;20025;-49
2022/02/11 10:15:51;;;;;;;14.07;3.23;;;;;;;19.04;49.49;102853.59;5029366;28;20744;-48
2022/02/11 10:18:20;;;;;;;12.30;2.37;;;;;;;19.06;43.36;102850.69;5024432;28;20087;-54
2022/02/11 10:20:48;;;;;;;22.00;3.13;;;;;;;18.39;45.24;102872.00;5027018;28;20101;-55
2022/02/11 10:23:24;;;;;;;13.40;2.80;;;;;;;19.21;46.46;102864.06;5029955;28;20034;-54
2022/02/11 10:26:08;;;;;;;10.82;2.75;;;;;;;19.42;43.90;102875.81;5024670;28;20054;-54
2022/02/11 10:28:39;;;;;;;9.47;2.23;;;;;;;18.56;41.73;102889.59;5030981;28;20033;-55
2022/02/11 10:31:09;;;;;;;14.40;3.77;;;;;;;17.24;48.46;102884.47;5022456;28;20037;-55
2022/02/11 10:34:03;;;;;;;10.40;3.07;;;;;;;17.46;48.40;102887.22;5005881;28;20029;-53
2022/02/11 10:36:34;;;;;;;10.00;2.20;;;;;;;16.45;52.32;102904.78;5021315;28;20270;-53
2022/02/11 10:39:17;;;;;;;16.63;2.70;;;;;;;16.55;46.73;102905.38;5017598;28;20353;-52
2022/02/11 10:41:52;;;;;;;9.97;2.03;;;;;;;17.56;52.23;102901.28;5023117;28;20295;-52
2022/02/11 10:44:20;;;;;;;12.97;3.03;;;;;;;17.62;50.41;102914.03;5030570;28;20041;-49
2022/02/11 10:46:47;;;;;;;11.43;2.20;;;;;;;16.26;43.87;102922.38;5016153;28;20371;-51
2022/02/11 10:49:15;;;;;;;7.93;1.73;;;;;;;16.53;56.40;102925.47;5027009;28;20755;-51
2022/02/11 10:51:46;;;;;;;10.83;2.87;;;;;;;15.77;62.79;102929.81;5021485;28;20348;-49
2022/02/11 10:54:34;;;;;;;12.63;2.20;;;;;;;16.71;55.19;102950.28;5019342;28;20276;-51
2022/02/11 10:57:05;;;;;;;7.93;2.27;;;;;;;16.53;55.34;102955.19;5015885;28;20307;-50
2022/02/11 10:59:35;;;;;;;13.53;2.87;;;;;;;18.00;50.06;102956.22;5024476;28;20326;-55
2022/02/11 11:02:17;;;;;;;13.47;2.97;;;;;;;19.31;41.52;102967.59;5024262;28;20670;-55
2022/02/11 11:04:45;;;;;;;13.37;2.53;;;;;;;19.23;41.37;102954.22;5023198;28;20278;-49
2022/02/11 11:07:13;;;;;;;10.37;2.60;;;;;;;18.61;38.47;102968.44;5027125;28;20318;-54
2022/02/11 11:09:45;;;;;;;9.90;2.73;;;;;;;20.13;36.19;102972.22;5020568;28;20280;-52
2022/02/11 11:12:14;;;;;;;9.07;2.03;;;;;;;21.37;38.69;102969.88;5018382;28;20036;-56
2022/02/11 11:14:40;;;;;;;13.30;2.70;;;;;;;22.28;37.86;102978.75;5037491;22;20158;-52
2022/02/11 11:17:06;;;;;;;11.07;2.20;;;;;;;23.44;34.22;102984.69;5075452;22;20059;-55
2022/02/11 11:19:34;;;;;;;11.68;2.92;;;;;;;23.45;35.50;102976.28;5043991;28;20116;-55
2022/02/11 11:22:14;;;;;;;12.13;2.33;;;;;;;23.04;35.18;102978.63;5043395;28;20424;-52
2022/02/11 11:24:53;;;;;;;11.13;3.33;;;;;;;23.63;31.44;102969.94;5051289;28;20044;-53
2022/02/11 11:27:41;;;;;;;7.33;2.00;;;;;;;23.90;33.28;102987.84;5044845;28;20041;-52
2022/02/11 11:30:23;;;;;;;;;;;;;;;23.99;28.19;102970.03;5044536;28;20569;-56
2022/02/11 11:33:04;;;;;;;8.00;1.87;;;;;;;24.19;29.88;102982.56;5034829;28;19913;-54
2022/02/11 11:35:52;;;;;;;6.40;2.20;;;;;;;24.98;34.47;102988.72;5043709;28;20037;-55
2022/02/11 11:38:21;;;;;;;6.73;1.70;;;;;;;26.31;31.00;102997.78;5045686;28;20039;-57
2022/02/11 11:41:18;;;;;;;6.47;1.97;;;;;;;24.71;24.02;103005.63;5049510;28;20507;-53
2022/02/11 11:43:51;;;;;;;7.37;1.83;;;;;;;24.61;32.86;102996.13;5041074;28;20123;-51
2022/02/11 11:46:16;;;;;;;11.13;1.93;;;;;;;22.98;30.78;102995.94;5051595;28;20037;-54
2022/02/11 11:48:51;;;;;;;6.20;1.83;;;;;;;22.48;34.23;102989.50;5034860;28;20049;-54
2022/02/11 11:51:17;;;;;;;11.17;1.80;;;;;;;22.25;37.39;102989.28;5045804;28;20094;-53
2022/02/11 11:53:42;;;;;;;13.90;2.53;;;;;;;22.34;35.41;102998.81;5046584;28;20032;-58
2022/02/11 11:56:34;;;;;;;12.50;2.30;;;;;;;20.90;37.43;103006.25;5066785;28;20087;-54
2022/02/11 11:59:14;;;;;;;11.00;2.47;;;;;;;20.46;38.96;102998.53;5047467;28;20498;-51
2022/02/11 12:02:10;;;;;;;14.13;2.93;;;;;;;20.12;39.31;103008.56;5039508;28;20094;-53
2022/02/11 12:04:41;;;;;;;16.27;2.30;;;;;;;19.69;41.28;103006.97;5034376;28;20041;-56
2022/02/11 12:07:09;;;;;;;13.63;2.43;;;;;;;18.10;38.67;103006.53;5043795;28;20041;-53
2022/02/11 12:09:35;;;;;;;6.37;1.93;;;;;;;18.29;48.76;103011.31;5043309;28;20039;-57
2022/02/11 12:12:02;;;;;;;;;;;;;;;18.10;53.31;103004.69;5051017;28;20037;-52
2022/02/11 12:14:30;;;;;;;10.85;2.13;;;;;;;17.95;53.66;103009.28;5035705;28;19913;-54
2022/02/11 12:16:58;;;;;;;15.17;2.77;;;;;;;17.88;40.57;103012.75;5047461;28;20045;-53
2022/02/11 12:19:24;;;;;;;14.17;1.50;;;;;;;18.58;38.32;103008.63;5037467;28;20361;-55
2022/02/11 12:21:50;;;;;;;18.75;2.10;;;;;;;19.82;36.00;103014.31;5041720;28;20366;-57
2022/02/11 12:29:55;;;;;;;16.40;2.30;;;;;;;21.98;31.06;103014.81;5044199;28;20047;-55
2022/02/11 12:32:23;;;;;;;8.18;2.53;;;;;;;23.48;34.08;103030.44;5073423;28;20090;-55
2022/02/11 12:34:53;;;;;;;14.93;2.10;;;;;;;25.23;29.77;103037.72;5072322;28;20040;-56
2022/02/11 12:37:20;;;;;;;9.67;2.07;;;;;;;25.76;31.43;103045.88;5049000;28;20064;-56
2022/02/11 12:39:47;;;;;;;7.25;1.77;;;;;;;26.41;30.66;103038.25;5044168;28;20036;-57
2022/02/11 12:42:25;;;;;;;9.37;2.97;;;;;;;27.01;30.72;103037.75;5041041;28;20037;-56
2022/02/11 12:44:51;;;;;;;12.00;2.03;;;;;;;26.12;29.46;103038.31;5034854;28;20079;-56
2022/02/11 12:47:16;;;;;;;7.93;2.07;;;;;;;24.42;32.23;103035.59;5049036;28;20069;-57
2022/02/11 12:49:44;;;;;;;11.40;2.42;;;;;;;24.04;35.77;103026.75;5043500;28;20060;-59
2022/02/11 12:52:15;;;;;;;9.53;2.03;;;;;;;24.68;31.28;103028.84;5041522;28;20164;-58
2022/02/11 12:54:58;;;;;;;5.47;2.03;;;;;;;23.15;34.30;103026.16;5050725;28;20051;-54
2022/02/11 12:57:24;;;;;;;11.97;2.10;;;;;;;22.19;31.20;103026.41;5039827;28;20476;-52
2022/02/11 12:59:50;;;;;;;6.85;1.98;;;;;;;21.52;36.38;103035.78;5044096;28;20034;-51
2022/02/11 13:02:29;;;;;;;14.53;2.50;;;;;;;21.00;35.63;103039.31;5047309;28;20036;-57
2022/02/11 13:05:24;;;;;;;11.67;2.03;;;;;;;20.37;38.44;103035.13;5051588;28;20068;-53
2022/02/11 13:07:52;;;;;;;10.17;2.23;;;;;;;20.47;33.72;103046.41;5042185;28;20053;-56
2022/02/11 13:10:19;;;;;;;12.73;1.73;;;;;;;20.17;42.67;103041.38;5022113;28;20423;-55
2022/02/11 13:12:45;;;;;;;11.67;2.23;;;;;;;20.03;35.27;103042.38;5050416;28;20041;-55
2022/02/11 13:15:15;;;;;;;13.70;2.22;;;;;;;20.56;33.72;103046.22;5038118;28;20477;-56
2022/02/11 13:17:42;;;;;;;8.80;1.70;;;;;;;20.05;41.96;103043.00;5053479;28;20049;-54
2022/02/11 13:20:18;;;;;;;12.20;1.70;;;;;;;19.52;33.53;103055.34;5041188;28;20485;-55
2022/02/11 13:22:45;;;;;;;18.90;2.50;;;;;;;19.22;37.69;103052.03;5050878;28;20037;-52
2022/02/11 13:25:12;;;;;;;13.17;2.60;;;;;;;18.34;33.75;103048.66;5052939;28;20049;-56
2022/02/11 13:27:50;;;;;;;12.23;2.03;;;;;;;18.22;34.03;103052.88;5045197;28;20808;-57
2022/02/11 13:30:31;;;;;;;6.83;1.73;;;;;;;19.97;34.17;103060.34;5028031;28;20760;-50
2022/02/11 13:33:18;;;;;;;10.83;1.90;;;;;;;22.55;40.63;103071.25;5035144;28;20369;-53
2022/02/11 13:35:43;;;;;;;12.10;2.47;;;;;;;23.59;28.46;103071.66;5044302;28;20060;-57
2022/02/11 13:38:09;;;;;;;7.68;2.25;;;;;;;24.73;29.10;103078.19;5045112;28;20072;-57
2022/02/11 13:40:35;;;;;;;8.90;2.00;;;;;;;24.82;23.56;103080.59;5036333;28;20049;-56
2022/02/11 13:43:04;;;;;;;14.55;2.20;;;;;;;24.66;35.05;103079.38;5051857;28;20040;-57
2022/02/11 13:45:49;;;;;;;6.13;1.57;;;;;;;25.05;25.69;103085.25;5052693;28;20505;-55
2022/02/11 13:48:16;;;;;;;11.20;2.60;;;;;;;26.39;24.17;103091.69;5052349;28;20051;-55
2022/02/11 13:51:06;;;;;;;13.10;1.90;;;;;;;26.14;31.99;103093.72;5036087;28;20034;-58
2022/02/11 13:53:35;;;;;;;10.23;2.10;;;;;;;27.61;21.76;103085.50;5045423;28;20040;-54
2022/02/11 13:56:02;;;;;;;10.93;2.27;;;;;;;27.49;22.29;103093.84;5042868;28;20037;-56
2022/02/11 13:58:28;;;;;;;10.30;1.80;;;;;;;28.39;24.69;103102.78;5038424;28;20434;-57
2022/02/11 14:00:53;;;;;;;10.43;2.63;;;;;;;28.65;19.38;103108.47;5048976;28;20029;-58
2022/02/11 14:03:20;;;;;;;;;;;;;;;29.21;19.92;103109.91;5038331;28;20040;-58
2022/02/11 14:05:46;;;;;;;11.90;2.60;;;;;;;29.95;21.09;103109.06;5052314;28;20283;-58
2022/02/11 14:08:12;;;;;;;8.85;2.30;;;;;;;29.50;17.44;103101.25;5052096;28;20144;-56
2022/02/11 14:10:38;;;;;;;;;;;;;;;28.46;21.51;103103.38;5036499;28;20041;-57
2022/02/11 14:13:08;;;;;;;6.63;1.90;;;;;;;27.53;19.78;103104.34;5049159;28;19913;-57
2022/02/11 14:15:34;;;;;;;10.38;2.33;;;;;;;25.97;24.57;103101.09;5039246;28;20035;-56
2022/02/11 14:18:02;;;;;;;10.13;2.27;;;;;;;24.53;23.86;103105.06;5041045;28;20052;-58
2022/02/11 14:20:27;;;;;;;12.30;2.70;;;;;;;24.40;31.08;103104.19;5046537;28;20037;-56
2022/02/11 14:22:53;;;;;;;8.02;1.70;;;;;;;23.29;29.21;103105.22;5035326;28;20056;-55
2022/02/11 14:25:19;;;;;;;6.35;1.65;;;;;;;22.72;26.38;103104.25;5051671;28;20091;-58
2022/02/11 14:27:44;;;;;;;7.43;1.58;;;;;;;22.20;24.32;103104.38;5052194;28;20473;-54
2022/02/11 14:30:10;;;;;;;9.87;1.50;;;;;;;23.05;23.01;103111.28;5038623;28;20042;-56
2022/02/11 14:32:35;;;;;;;12.10;2.38;;;;;;;23.69;22.75;103112.09;5048456;28;20282;-51
2022/02/11 14:35:00;;;;;;;7.28;2.00;;;;;;;23.06;29.54;103118.41;5048860;28;20047;-55
2022/02/11 14:37:26;;;;;;;15.80;3.23;;;;;;;22.56;24.96;103111.09;5037607;28;20036;-55
2022/02/11 14:39:51;;;;;;;10.55;2.60;;;;;;;22.78;26.52;103119.72;5041959;28;20072;-57
2022/02/11 14:42:17;;;;;;;11.00;2.53;;;;;;;22.19;24.89;103125.34;5044805;28;20444;-56
2022/02/11 14:44:42;;;;;;;6.93;1.60;;;;;;;21.41;27.57;103121.66;5035078;28;20056;-54
2022/02/11 14:47:08;;;;;;;11.47;2.30;;;;;;;21.89;25.36;103128.63;5048420;28;20033;-56
2022/02/11 14:49:35;;;;;;;11.27;2.90;;;;;;;21.46;25.31;103134.63;5038912;28;20266;-56
2022/02/11 14:52:08;;;;;;;7.87;2.40;;;;;;;20.78;25.63;103128.38;5041157;28;20067;-56
2022/02/11 14:54:35;;;;;;;10.17;3.23;;;;;;;20.61;28.86;103126.06;5046728;28;20485;-56
2022/02/11 14:57:02;;;;;;;9.00;2.47;;;;;;;20.18;26.80;103132.69;5049336;28;20025;-52
2022/02/11 14:59:28;;;;;;;7.30;2.00;;;;;;;19.85;39.49;103124.38;5020309;28;20041;-54
2022/02/11 15:01:54;;;;;;;8.60;2.25;;;;;;;20.65;27.43;103131.94;5051563;28;20032;-55
2022/02/11 15:04:20;;;;;;;10.27;1.77;;;;;;;20.17;27.06;103133.72;5051746;28;20059;-54
2022/02/11 15:06:48;;;;;;;14.27;2.40;;;;;;;19.98;28.14;103139.91;5052998;28;20029;-55
2022/02/11 15:09:14;;;;;;;12.77;2.97;;;;;;;19.80;29.78;103141.28;5046909;28;20034;-58
2022/02/11 15:11:41;;;;;;;10.88;2.60;;;;;;;19.54;27.69;103140.09;5039781;28;20372;-55
2022/02/11 15:14:07;;;;;;;7.43;1.97;;;;;;;18.72;28.65;103139.66;5041708;28;20234;-55
2022/02/11 15:16:32;;;;;;;19.40;3.10;;;;;;;18.89;28.97;103135.66;5018298;28;20365;-55
2022/02/11 15:18:59;;;;;;;7.03;1.80;;;;;;;18.70;28.85;103142.59;5049950;28;20493;-56